Time;durP1;ratioP1;P1;durP2;ratioP2;P2;SDS_P1;SDS_P2;PMS_P1;PMS_P2;Temp;Humidity;BMP_temperature;BMP_pressure;BME280_temperature;BME280_humidity;BME280_pressure;Samples;Min_cycle;Max_cycle;Signal;HPM_P1;HPM_P2
2022/10/09 00:01:03;;;;;;;12.93;4.85;;;7.80;99.90;;;;;;5059662;28;20066;-64
2022/10/09 00:03:29;;;;;;;14.70;4.95;;;7.80;99.90;;;;;;5058340;28;20040;-64
2022/10/09 00:05:55;;;;;;;18.58;5.05;;;7.70;99.90;;;;;;5060780;28;20370;-64
2022/10/09 00:08:22;;;;;;;15.45;4.95;;;7.40;99.90;;;;;;5043766;28;20047;-64
2022/10/09 00:10:48;;;;;;;15.35;4.93;;;7.80;99.90;;;;;;5017611;28;20047;-64
2022/10/09 00:13:14;;;;;;;18.52;5.50;;;7.50;99.90;;;;;;5042586;28;20127;-64
2022/10/09 00:15:42;;;;;;;23.38;5.28;;;7.80;99.90;;;;;;5058960;28;20054;-64
2022/10/09 00:18:09;;;;;;;19.58;5.88;;;7.20;99.90;;;;;;5059428;28;20044;-64
2022/10/09 00:20:41;;;;;;;21.40;6.13;;;7.40;99.90;;;;;;5041512;28;20397;-64
2022/10/09 00:23:06;;;;;;;15.95;4.57;;;7.60;99.90;;;;;;5059384;28;20127;-64
2022/10/09 00:25:34;;;;;;;17.60;4.80;;;8.00;99.90;;;;;;5059269;28;20403;-64
2022/10/09 00:28:00;;;;;;;17.50;5.60;;;7.60;99.90;;;;;;5033026;28;20216;-64
2022/10/09 00:30:26;;;;;;;17.35;5.25;;;8.00;99.90;;;;;;5059283;28;20602;-64
2022/10/09 00:32:52;;;;;;;19.20;5.13;;;7.50;99.90;;;;;;5060533;28;20051;-66
2022/10/09 00:35:19;;;;;;;22.52;5.25;;;7.50;99.90;;;;;;5040660;28;20543;-64
2022/10/09 00:37:45;;;;;;;19.48;5.25;;;7.40;99.90;;;;;;5042463;28;20036;-64
2022/10/09 00:40:10;;;;;;;19.08;6.10;;;7.50;99.90;;;;;;5032181;28;20040;-64
2022/10/09 00:42:36;;;;;;;17.02;5.07;;;7.70;99.90;;;;;;5032304;28;21626;-64
2022/10/09 00:45:03;;;;;;;20.20;5.18;;;8.10;99.90;;;;;;5069064;28;20148;-62
2022/10/09 00:47:38;;;;;;;14.50;4.72;;;7.60;99.90;;;;;;5059389;28;20036;-63
2022/10/09 00:50:14;;;;;;;15.52;5.50;;;7.50;99.90;;;;;;5058567;28;20055;-63
2022/10/09 00:52:40;;;;;;;23.23;5.97;;;8.00;99.90;;;;;;5041914;28;20048;-65
2022/10/09 00:55:08;;;;;;;16.45;5.25;;;7.80;99.90;;;;;;5030480;28;20058;-64
2022/10/09 00:57:34;;;;;;;20.85;5.35;;;7.30;99.90;;;;;;5043794;28;20446;-63
2022/10/09 01:00:04;;;;;;;19.60;6.10;;;8.00;99.90;;;;;;5038336;28;20044;-63
2022/10/09 01:02:30;;;;;;;17.98;5.47;;;7.40;99.90;;;;;;5043607;28;20071;-63
2022/10/09 01:04:55;;;;;;;16.60;5.45;;;7.90;99.90;;;;;;5058556;28;20071;-63
2022/10/09 01:07:43;;;;;;;17.67;5.20;;;7.60;99.90;;;;;;5058218;28;20040;-64
2022/10/09 01:10:17;;;;;;;20.27;6.60;;;7.60;99.90;;;;;;5047621;28;20043;-62
2022/10/09 01:13:12;;;;;;;18.40;5.80;;;7.40;99.90;;;;;;5059256;28;20135;-63
2022/10/09 01:16:12;;;;;;;21.95;5.82;;;8.10;99.90;;;;;;5057986;28;20036;-63
2022/10/09 01:18:59;;;;;;;17.15;6.10;;;8.10;99.90;;;;;;5057786;28;20161;-63
2022/10/09 01:21:37;;;;;;;18.17;5.68;;;7.80;99.90;;;;;;5042406;28;20119;-64
2022/10/09 01:24:10;;;;;;;13.75;5.55;;;7.80;99.90;;;;;;5057591;28;20292;-64
2022/10/09 01:26:42;;;;;;;22.20;5.70;;;7.60;99.90;;;;;;5056958;28;20051;-62
2022/10/09 01:29:10;;;;;;;17.00;5.90;;;8.10;99.90;;;;;;5042459;28;20136;-63
2022/10/09 01:31:42;;;;;;;19.05;5.88;;;8.10;99.90;;;;;;5058312;28;20052;-63
2022/10/09 01:34:10;;;;;;;17.67;5.50;;;7.90;99.90;;;;;;5041124;28;20051;-63
2022/10/09 01:36:38;;;;;;;19.65;5.22;;;8.00;99.90;;;;;;5059511;28;20139;-63
2022/10/09 01:39:06;;;;;;;19.38;5.68;;;7.70;99.90;;;;;;5058261;28;20114;-63
2022/10/09 01:41:32;;;;;;;17.52;4.82;;;7.60;99.90;;;;;;5034836;28;20062;-63
2022/10/09 01:43:57;;;;;;;18.80;5.10;;;7.50;99.90;;;;;;5058049;28;20502;-63
2022/10/09 01:46:31;;;;;;;14.18;4.90;;;8.20;99.90;;;;;;5057722;28;20490;-62
2022/10/09 01:49:38;;;;;;;19.48;5.20;;;8.00;99.90;;;;;;5037224;28;20131;-63
2022/10/09 01:52:09;;;;;;;15.70;4.72;;;7.60;99.90;;;;;;5058636;28;20389;-63
2022/10/09 01:55:07;;;;;;;15.20;5.28;;;8.10;99.90;;;;;;5057432;28;20131;-63
2022/10/09 01:57:53;;;;;;;18.00;5.10;;;7.60;99.90;;;;;;5058185;28;20518;-64
2022/10/09 02:00:19;;;;;;;20.08;5.15;;;7.80;99.90;;;;;;5057708;28;20501;-64
2022/10/09 02:02:47;;;;;;;20.77;4.95;;;8.10;99.90;;;;;;5031456;28;20040;-63
2022/10/09 02:05:20;;;;;;;18.48;5.50;;;7.90;99.90;;;;;;5059014;28;20044;-63
2022/10/09 02:07:46;;;;;;;19.90;5.65;;;8.00;99.90;;;;;;5058345;28;20097;-65
2022/10/09 02:10:13;;;;;;;18.52;4.72;;;8.00;99.90;;;;;;5067260;28;20044;-63
2022/10/09 02:12:42;;;;;;;14.57;4.15;;;7.30;99.90;;;;;;5075530;28;20478;-62
2022/10/09 02:15:09;;;;;;;19.05;4.47;;;7.30;99.90;;;;;;5061566;28;20043;-63
2022/10/09 02:17:41;;;;;;;19.63;4.95;;;7.30;99.90;;;;;;5061282;28;20167;-63
2022/10/09 02:20:41;;;;;;;18.93;4.80;;;7.90;99.90;;;;;;5045976;28;20044;-63
2022/10/09 02:23:08;;;;;;;16.92;5.65;;;7.80;99.90;;;;;;5062031;28;20042;-63
2022/10/09 02:25:34;;;;;;;22.58;5.30;;;7.70;99.90;;;;;;5045296;28;20044;-63
2022/10/09 02:28:01;;;;;;;24.25;5.63;;;7.20;99.90;;;;;;5045515;28;20039;-63
2022/10/09 02:30:34;;;;;;;18.30;5.55;;;7.40;99.90;;;;;;5045089;28;20043;-62
2022/10/09 02:32:59;;;;;;;17.25;5.63;;;7.20;99.90;;;;;;5062016;28;21575;-63
2022/10/09 02:35:25;;;;;;;19.27;4.80;;;7.10;99.90;;;;;;5038764;28;20040;-63
2022/10/09 02:37:51;;;;;;;19.77;5.28;;;7.20;99.90;;;;;;5060885;28;20059;-63
2022/10/09 02:40:16;;;;;;;14.25;5.65;;;7.70;99.90;;;;;;5062245;28;20036;-63
2022/10/09 02:42:42;;;;;;;21.95;5.45;;;7.30;99.90;;;;;;5060969;28;20509;-64
2022/10/09 02:45:08;;;;;;;19.65;6.60;;;6.90;99.90;;;;;;5061032;28;20391;-64
2022/10/09 02:47:34;;;;;;;18.98;5.78;;;6.90;99.90;;;;;;5043775;28;20036;-63
2022/10/09 02:49:59;;;;;;;18.55;6.07;;;7.10;99.90;;;;;;5070893;28;20089;-63
2022/10/09 02:52:25;;;;;;;22.42;6.25;;;7.60;99.90;;;;;;5018954;28;20052;-63
2022/10/09 02:54:51;;;;;;;21.67;5.88;;;7.10;99.90;;;;;;5044204;28;20040;-63
2022/10/09 02:57:16;;;;;;;24.10;6.85;;;7.50;99.90;;;;;;5061419;28;20051;-63
2022/10/09 02:59:42;;;;;;;14.95;5.80;;;7.50;99.90;;;;;;5060732;28;20125;-63
2022/10/09 03:02:07;;;;;;;18.27;6.25;;;6.90;99.90;;;;;;5059579;28;20036;-63
2022/10/09 03:04:33;;;;;;;16.17;6.15;;;7.60;99.90;;;;;;5043701;28;20414;-63
2022/10/09 03:06:59;;;;;;;19.13;6.13;;;7.10;99.90;;;;;;5060729;28;20044;-63
2022/10/09 03:09:24;;;;;;;17.13;5.88;;;7.20;99.90;;;;;;5044357;28;20051;-65
2022/10/09 03:11:50;;;;;;;20.35;6.00;;;7.40;99.90;;;;;;5059852;28;20575;-64
2022/10/09 03:14:16;;;;;;;15.25;5.28;;;7.40;99.90;;;;;;5061245;28;20047;-63
2022/10/09 03:16:41;;;;;;;20.40;7.13;;;7.20;99.90;;;;;;5051828;28;20044;-63
2022/10/09 03:19:07;;;;;;;17.88;6.40;;;6.60;99.90;;;;;;5066767;28;20165;-63
2022/10/09 03:21:33;;;;;;;23.88;7.30;;;7.30;99.90;;;;;;5058007;28;20052;-64
2022/10/09 03:23:58;;;;;;;17.30;6.72;;;7.10;99.90;;;;;;5032797;28;20078;-63
2022/10/09 03:26:26;;;;;;;21.98;7.78;;;6.80;99.90;;;;;;5058659;28;20953;-63
2022/10/09 03:28:53;;;;;;;15.65;6.22;;;6.70;99.90;;;;;;5043674;28;20467;-63
2022/10/09 03:31:20;;;;;;;18.83;6.63;;;6.90;99.90;;;;;;5060926;28;20048;-63
2022/10/09 03:33:46;;;;;;;18.95;6.57;;;7.30;99.90;;;;;;5015447;28;20561;-62
2022/10/09 03:36:12;;;;;;;20.92;6.57;;;6.60;99.90;;;;;;5079298;28;20301;-63
2022/10/09 03:38:38;;;;;;;13.82;6.40;;;7.00;99.90;;;;;;5061385;28;20048;-64
2022/10/09 03:41:04;;;;;;;18.42;7.30;;;6.70;99.90;;;;;;5079361;28;20055;-63
2022/10/09 03:43:31;;;;;;;21.77;6.57;;;6.50;99.90;;;;;;5032867;28;20039;-64
2022/10/09 03:45:56;;;;;;;16.35;6.03;;;6.70;99.90;;;;;;5033659;28;20416;-64
2022/10/09 03:48:22;;;;;;;21.38;7.78;;;6.40;99.90;;;;;;5061411;28;20047;-62
2022/10/09 03:50:48;;;;;;;20.38;7.32;;;6.80;99.90;;;;;;5017991;28;20078;-63
2022/10/09 03:53:14;;;;;;;11.50;6.05;;;7.20;99.90;;;;;;5059018;28;20044;-63
2022/10/09 03:55:41;;;;;;;17.38;6.75;;;6.70;99.90;;;;;;5032234;28;20486;-63
2022/10/09 03:58:07;;;;;;;19.10;7.05;;;7.20;99.90;;;;;;5060004;28;20032;-62
2022/10/09 04:00:34;;;;;;;23.10;7.40;;;7.00;99.90;;;;;;5060280;28;20099;-63
2022/10/09 04:02:59;;;;;;;13.88;7.43;;;7.20;99.90;;;;;;5059576;28;20040;-63
2022/10/09 04:05:25;;;;;;;22.00;7.50;;;7.20;99.90;;;;;;5032345;28;20048;-62
2022/10/09 04:07:51;;;;;;;24.05;9.15;;;6.50;99.90;;;;;;5060048;28;20489;-63
2022/10/09 04:10:16;;;;;;;18.55;7.18;;;6.80;99.90;;;;;;5060491;28;20119;-62
2022/10/09 04:12:42;;;;;;;19.50;8.07;;;6.40;99.90;;;;;;5077518;28;20495;-65
2022/10/09 04:15:09;;;;;;;22.00;8.13;;;7.00;99.90;;;;;;5070483;28;20394;-63
2022/10/09 04:17:35;;;;;;;24.88;7.53;;;6.80;99.90;;;;;;5032137;28;20072;-63
2022/10/09 04:20:00;;;;;;;19.48;7.90;;;6.80;99.90;;;;;;5070313;28;20482;-63
2022/10/09 04:22:27;;;;;;;27.13;8.02;;;6.70;99.90;;;;;;5069275;28;20071;-65
2022/10/09 04:24:52;;;;;;;19.90;7.50;;;7.10;99.90;;;;;;5087218;28;20473;-63
2022/10/09 04:27:18;;;;;;;17.92;7.90;;;6.60;99.90;;;;;;5042010;28;20047;-63
2022/10/09 04:29:44;;;;;;;24.08;8.13;;;6.40;99.90;;;;;;5052358;28;20059;-64
2022/10/09 04:32:10;;;;;;;20.38;8.07;;;6.60;99.90;;;;;;5068395;28;20394;-63
2022/10/09 04:34:35;;;;;;;23.55;8.75;;;7.00;99.90;;;;;;5067174;28;20048;-64
2022/10/09 04:37:01;;;;;;;17.20;8.32;;;6.30;99.90;;;;;;5068352;28;20028;-63
2022/10/09 04:39:27;;;;;;;17.70;8.63;;;6.60;99.90;;;;;;5068482;28;20549;-62
2022/10/09 04:41:52;;;;;;;24.08;8.75;;;6.90;99.90;;;;;;5042215;28;20071;-63
2022/10/09 04:44:18;;;;;;;24.67;9.00;;;6.50;99.90;;;;;;5066500;28;20114;-62
2022/10/09 04:46:44;;;;;;;25.60;9.50;;;6.50;99.90;;;;;;5068648;28;20047;-63
2022/10/09 04:49:13;;;;;;;18.63;8.80;;;7.00;99.90;;;;;;5060005;28;20040;-62
2022/10/09 04:51:39;;;;;;;21.10;10.68;;;6.90;99.90;;;;;;5091305;28;20086;-62
2022/10/09 04:54:05;;;;;;;24.40;11.10;;;6.90;99.90;;;;;;5069607;28;20097;-62
2022/10/09 04:56:31;;;;;;;19.10;9.73;;;7.00;99.90;;;;;;5095324;28;20044;-63
2022/10/09 04:58:56;;;;;;;21.02;11.38;;;7.00;99.90;;;;;;5085487;28;20040;-63
2022/10/09 05:01:25;;;;;;;23.50;11.93;;;6.30;99.90;;;;;;5051788;28;20474;-62
2022/10/09 05:03:51;;;;;;;26.48;12.07;;;6.30;99.90;;;;;;5057898;28;20056;-64
2022/10/09 05:06:19;;;;;;;23.38;11.75;;;6.80;99.90;;;;;;5051822;28;20624;-63
2022/10/09 05:08:45;;;;;;;25.05;12.77;;;6.50;99.90;;;;;;5066068;28;20185;-63
2022/10/09 05:11:16;;;;;;;25.65;12.55;;;6.60;99.90;;;;;;5040758;28;20130;-63
2022/10/09 05:13:46;;;;;;;33.10;14.50;;;6.60;99.90;;;;;;5066751;28;20089;-63
2022/10/09 05:16:14;;;;;;;28.95;13.40;;;6.20;99.90;;;;;;5086424;28;20028;-63
2022/10/09 05:18:42;;;;;;;27.75;13.52;;;6.00;99.90;;;;;;5068728;28;20112;-63
2022/10/09 05:21:07;;;;;;;31.95;14.95;;;6.00;99.90;;;;;;5067759;28;20040;-64
2022/10/09 05:23:34;;;;;;;32.63;16.27;;;6.10;99.90;;;;;;5068682;28;20796;-62
2022/10/09 05:26:05;;;;;;;31.45;15.23;;;6.10;99.90;;;;;;5069174;28;20116;-64
2022/10/09 05:28:49;;;;;;;27.85;15.38;;;6.50;99.90;;;;;;5067654;28;20048;-63
2022/10/09 05:31:19;;;;;;;27.52;15.30;;;5.90;99.90;;;;;;5067657;28;20496;-63
2022/10/09 05:33:46;;;;;;;33.03;18.42;;;6.20;99.90;;;;;;5066955;28;20626;-62
2022/10/09 05:36:12;;;;;;;31.40;17.50;;;6.30;99.90;;;;;;5067585;28;20101;-63
2022/10/09 05:38:37;;;;;;;31.95;18.00;;;6.70;99.90;;;;;;5067886;28;20043;-63
2022/10/09 05:41:05;;;;;;;36.15;19.17;;;5.80;99.90;;;;;;5059710;28;20084;-63
2022/10/09 05:43:36;;;;;;;34.70;19.83;;;6.40;99.90;;;;;;5027939;28;20067;-63
2022/10/09 05:46:06;;;;;;;35.60;18.88;;;6.20;99.90;;;;;;5046499;28;21246;-63
2022/10/09 05:48:32;;;;;;;33.38;20.65;;;6.30;99.90;;;;;;5042556;28;20076;-64
2022/10/09 05:51:11;;;;;;;39.67;21.17;;;6.20;99.90;;;;;;5044325;28;20098;-63
2022/10/09 05:53:38;;;;;;;36.15;22.33;;;6.00;99.90;;;;;;5033906;28;20095;-62
2022/10/09 05:56:11;;;;;;;37.45;20.90;;;5.80;99.90;;;;;;5044729;28;20037;-62
2022/10/09 05:58:37;;;;;;;46.58;23.13;;;6.00;99.90;;;;;;5045538;28;20037;-62
2022/10/09 06:01:02;;;;;;;42.58;23.05;;;6.20;99.90;;;;;;5028633;28;20041;-65
2022/10/09 06:03:28;;;;;;;43.03;23.70;;;6.60;99.90;;;;;;5043600;28;20049;-64
2022/10/09 06:06:03;;;;;;;40.20;21.55;;;6.70;99.90;;;;;;5028663;28;20120;-64
2022/10/09 06:08:32;;;;;;;43.10;22.98;;;6.60;99.90;;;;;;5045057;28;20052;-62
2022/10/09 06:11:07;;;;;;;39.35;21.60;;;6.30;99.90;;;;;;5045301;28;20402;-62
2022/10/09 06:13:32;;;;;;;40.70;22.52;;;6.70;99.90;;;;;;5043538;28;20485;-63
2022/10/09 06:15:58;;;;;;;46.20;22.08;;;6.50;99.90;;;;;;5029457;28;20037;-63
2022/10/09 06:18:23;;;;;;;34.67;21.52;;;6.20;99.90;;;;;;5045356;28;20124;-63
2022/10/09 06:20:58;;;;;;;37.47;21.90;;;6.70;99.90;;;;;;5001029;28;20128;-63
2022/10/09 06:23:24;;;;;;;33.67;21.17;;;6.70;99.90;;;;;;5029322;28;20047;-63
2022/10/09 06:25:54;;;;;;;35.05;20.70;;;6.10;99.90;;;;;;5044446;28;20045;-64
2022/10/09 06:28:21;;;;;;;37.85;20.90;;;6.30;99.90;;;;;;5047202;28;20098;-63
2022/10/09 06:30:47;;;;;;;33.40;19.13;;;6.60;99.90;;;;;;5045832;28;20056;-62
2022/10/09 06:33:13;;;;;;;30.02;18.42;;;6.10;99.90;;;;;;5012097;28;20045;-64
2022/10/09 06:35:39;;;;;;;36.20;18.88;;;6.30;99.90;;;;;;5040994;28;20037;-65
2022/10/09 06:38:05;;;;;;;34.35;20.48;;;6.40;99.90;;;;;;5036133;28;20663;-63
2022/10/09 06:40:35;;;;;;;28.13;19.48;;;7.00;99.90;;;;;;5020418;28;20041;-64
2022/10/09 06:43:02;;;;;;;32.42;19.17;;;7.00;99.90;;;;;;5075702;28;20416;-63
2022/10/09 06:45:28;;;;;;;29.42;17.48;;;6.90;99.90;;;;;;5017301;28;20460;-63
2022/10/09 06:47:54;;;;;;;30.73;17.67;;;6.70;99.90;;;;;;5068214;28;20040;-63
2022/10/09 06:50:21;;;;;;;26.23;18.02;;;6.90;99.90;;;;;;5041053;28;20130;-65
2022/10/09 06:52:47;;;;;;;26.40;17.48;;;6.40;99.90;;;;;;5067753;28;20506;-64
2022/10/09 06:55:12;;;;;;;31.10;16.80;;;7.20;99.90;;;;;;5032338;28;20177;-65
2022/10/09 06:57:38;;;;;;;27.95;17.73;;;6.70;99.90;;;;;;5057931;28;20036;-64
2022/10/09 07:00:04;;;;;;;29.25;16.13;;;7.20;99.90;;;;;;5066225;28;20504;-64
2022/10/09 07:02:36;;;;;;;27.45;16.63;;;7.00;99.90;;;;;;5081467;28;20043;-64
2022/10/09 07:05:02;;;;;;;27.77;15.98;;;7.40;99.90;;;;;;5031681;28;20108;-66
2022/10/09 07:07:27;;;;;;;27.10;15.85;;;7.10;99.90;;;;;;5032622;28;20440;-64
2022/10/09 07:09:53;;;;;;;22.25;15.07;;;7.20;99.90;;;;;;5061801;28;20139;-64
2022/10/09 07:12:19;;;;;;;26.63;15.10;;;6.60;99.90;;;;;;5053092;28;20028;-65
2022/10/09 07:14:44;;;;;;;24.08;16.42;;;7.20;99.90;;;;;;5062060;28;20036;-64
2022/10/09 07:17:10;;;;;;;29.85;17.60;;;7.00;99.90;;;;;;5035491;28;20072;-65
2022/10/09 07:19:35;;;;;;;31.10;18.98;;;7.50;99.90;;;;;;5052206;28;20928;-65
2022/10/09 07:22:01;;;;;;;26.83;19.33;;;7.00;99.90;;;;;;5090732;28;20084;-65
2022/10/09 07:24:27;;;;;;;33.63;21.75;;;7.30;99.90;;;;;;5063445;28;20051;-63
2022/10/09 07:26:56;;;;;;;26.02;19.15;;;7.20;99.90;;;;;;5062734;28;20039;-63
2022/10/09 07:29:22;;;;;;;26.17;19.08;;;7.10;99.90;;;;;;5044784;28;20127;-63
2022/10/09 07:31:48;;;;;;;27.25;19.83;;;7.80;99.90;;;;;;5063772;28;20457;-64
2022/10/09 07:34:15;;;;;;;26.58;19.38;;;8.00;99.90;;;;;;5021920;28;20097;-63
2022/10/09 07:36:40;;;;;;;27.90;19.10;;;7.90;99.90;;;;;;5062982;28;20441;-65
2022/10/09 07:39:06;;;;;;;32.60;18.00;;;7.40;99.90;;;;;;5063118;28;20678;-64
2022/10/09 07:41:33;;;;;;;29.73;16.95;;;8.10;99.90;;;;;;5065237;28;20485;-65
2022/10/09 07:43:58;;;;;;;20.80;15.60;;;7.70;99.90;;;;;;5046209;28;20044;-64
2022/10/09 07:46:25;;;;;;;20.70;14.73;;;7.90;99.90;;;;;;5073469;28;20711;-66
2022/10/09 07:48:51;;;;;;;20.80;12.10;;;8.60;99.90;;;;;;5064499;28;20054;-64
2022/10/09 07:51:25;;;;;;;19.50;11.25;;;8.40;99.90;;;;;;5069941;28;20043;-65
2022/10/09 07:53:52;;;;;;;17.58;9.32;;;8.50;99.90;;;;;;5064647;28;20352;-65
2022/10/09 07:56:20;;;;;;;15.73;7.97;;;8.90;99.90;;;;;;5065189;28;20040;-62
2022/10/09 07:58:51;;;;;;;13.68;6.50;;;9.60;99.90;;;;;;5064533;28;20066;-63
2022/10/09 08:01:17;;;;;;;13.20;5.80;;;10.20;99.90;;;;;;5063828;28;20410;-65
2022/10/09 08:03:43;;;;;;;7.97;4.50;;;10.80;99.90;;;;;;5063844;28;20256;-63
2022/10/09 08:06:09;;;;;;;11.10;4.38;;;11.70;99.90;;;;;;5031127;28;20122;-63
2022/10/09 08:08:35;;;;;;;7.20;4.00;;;12.30;99.90;;;;;;5029508;28;20162;-64
2022/10/09 08:11:07;;;;;;;9.93;4.25;;;12.80;99.90;;;;;;5020138;28;20039;-63
2022/10/09 08:13:33;;;;;;;8.63;3.22;;;13.30;99.90;;;;;;5046256;28;20078;-63
2022/10/09 08:15:59;;;;;;;10.13;3.63;;;13.30;99.90;;;;;;5046564;28;20417;-64
2022/10/09 08:18:24;;;;;;;10.00;3.10;;;13.60;99.90;;;;;;5031634;28;20039;-64
2022/10/09 08:20:58;;;;;;;9.38;3.00;;;14.00;99.90;;;;;;5071421;28;20043;-63
2022/10/09 08:23:24;;;;;;;10.00;3.15;;;13.70;99.90;;;;;;5072039;28;20050;-63
2022/10/09 08:25:51;;;;;;;9.15;2.80;;;13.90;99.90;;;;;;5070566;28;20165;-63
2022/10/09 08:28:16;;;;;;;6.95;2.63;;;13.90;99.90;;;;;;5086143;28;20082;-63
2022/10/09 08:30:42;;;;;;;9.02;2.65;;;14.20;99.90;;;;;;5073608;28;20098;-65
2022/10/09 08:33:08;;;;;;;8.48;2.60;;;14.10;99.90;;;;;;5053848;28;20072;-64
2022/10/09 08:35:33;;;;;;;7.05;2.03;;;14.50;99.90;;;;;;5044432;28;20059;-63
2022/10/09 08:37:59;;;;;;;9.73;2.72;;;14.80;99.90;;;;;;5086323;28;20032;-63
2022/10/09 08:41:01;;;;;;;9.05;3.05;;;15.00;99.90;;;;;;5068275;28;20068;-62
2022/10/09 08:43:31;;;;;;;8.02;2.28;;;14.80;99.90;;;;;;5066244;28;20067;-63
2022/10/09 08:46:01;;;;;;;8.15;2.13;;;14.90;99.90;;;;;;5050056;28;20044;-63
2022/10/09 08:48:28;;;;;;;9.20;2.10;;;15.20;99.90;;;;;;5086430;28;20028;-63
2022/10/09 08:50:56;;;;;;;8.00;2.00;;;14.80;99.90;;;;;;5066535;28;20043;-63
2022/10/09 08:53:36;;;;;;;7.38;1.63;;;15.20;99.90;;;;;;5093514;28;20085;-66
2022/10/09 08:56:04;;;;;;;8.32;1.80;;;15.30;99.90;;;;;;5067564;28;20395;-64
2022/10/09 08:58:33;;;;;;;7.25;1.60;;;15.50;99.90;;;;;;5021854;28;20048;-64
2022/10/09 09:01:24;;;;;;;11.38;1.80;;;15.90;99.90;;;;;;5067013;28;20515;-64
2022/10/09 09:04:08;;;;;;;7.03;1.50;;;15.90;99.90;;;;;;5056541;28;20109;-65
2022/10/09 09:07:04;;;;;;;7.10;2.00;;;16.20;99.90;;;;;;5065217;28;20043;-63
2022/10/09 09:09:42;;;;;;;8.20;2.03;;;16.20;99.90;;;;;;5066910;28;20040;-63
2022/10/09 09:12:33;;;;;;;10.40;2.55;;;16.10;99.90;;;;;;5066624;28;20501;-64
2022/10/09 09:15:14;;;;;;;8.45;1.98;;;15.80;99.90;;;;;;5066513;28;20525;-63
2022/10/09 09:17:53;;;;;;;9.38;1.85;;;15.90;99.90;;;;;;5067970;28;20048;-64
2022/10/09 09:20:44;;;;;;;6.32;1.73;;;16.40;99.90;;;;;;5048963;28;20036;-64
2022/10/09 09:23:14;;;;;;;6.97;2.00;;;16.50;99.90;;;;;;5066527;28;20036;-63
2022/10/09 09:25:59;;;;;;;9.48;2.10;;;16.60;99.90;;;;;;5048482;28;20126;-64
2022/10/09 09:28:32;;;;;;;9.95;1.98;;;16.40;99.90;;;;;;5070746;28;20068;-64
2022/10/09 09:31:07;;;;;;;7.18;1.85;;;16.50;99.90;;;;;;5062825;28;20153;-65
2022/10/09 09:33:43;;;;;;;8.80;2.10;;;16.80;99.90;;;;;;5062071;28;20501;-64
2022/10/09 09:36:23;;;;;;;7.65;2.20;;;16.90;99.90;;;;;;5041046;28;20039;-64
2022/10/09 09:38:50;;;;;;;8.35;2.28;;;16.90;99.90;;;;;;5059814;28;20043;-64
2022/10/09 09:41:16;;;;;;;9.20;1.92;;;16.90;99.90;;;;;;5016785;28;20052;-64
2022/10/09 09:43:42;;;;;;;8.55;2.00;;;17.20;99.90;;;;;;5041370;28;20410;-64
2022/10/09 09:46:15;;;;;;;9.45;1.90;;;17.10;99.90;;;;;;5044472;28;20052;-65
2022/10/09 09:48:44;;;;;;;5.15;1.50;;;17.30;99.90;;;;;;5061228;28;20791;-65
2022/10/09 09:51:18;;;;;;;9.10;1.88;;;17.40;99.90;;;;;;5060146;28;20054;-64
2022/10/09 09:53:57;;;;;;;7.68;1.65;;;17.30;99.90;;;;;;5058215;28;20040;-65
2022/10/09 09:56:43;;;;;;;11.82;1.55;;;17.40;99.90;;;;;;5041172;28;20072;-64
2022/10/09 09:59:37;;;;;;;7.88;0.93;;;17.70;99.90;;;;;;5057598;28;20545;-67
2022/10/09 10:02:10;;;;;;;7.60;0.80;;;17.70;99.90;;;;;;5041819;28;20039;-64
2022/10/09 10:04:36;;;;;;;6.53;0.77;;;17.90;99.90;;;;;;5059601;28;20485;-64
2022/10/09 10:07:04;;;;;;;5.00;0.77;;;18.00;99.90;;;;;;5034779;28;20188;-63
2022/10/09 10:09:30;;;;;;;4.65;0.70;;;18.00;99.90;;;;;;5031640;28;20065;-64
2022/10/09 10:12:04;;;;;;;6.30;0.88;;;18.10;99.90;;;;;;5064554;28;20052;-64
2022/10/09 10:14:31;;;;;;;4.13;0.70;;;18.00;99.90;;;;;;5058240;28;20048;-63
2022/10/09 10:16:59;;;;;;;4.47;0.60;;;18.10;99.90;;;;;;5041742;28;20024;-64
2022/10/09 10:19:28;;;;;;;6.65;0.70;;;18.00;99.90;;;;;;5058356;28;20093;-64
2022/10/09 10:22:03;;;;;;;5.15;0.70;;;18.00;99.90;;;;;;5030502;28;20038;-64
2022/10/09 10:24:41;;;;;;;4.93;0.70;;;17.90;99.90;;;;;;5039462;28;20044;-65
2022/10/09 10:27:21;;;;;;;6.45;1.00;;;18.10;99.90;;;;;;5058570;28;20036;-65
2022/10/09 10:29:51;;;;;;;6.07;0.95;;;18.30;99.90;;;;;;5056125;28;20040;-64
2022/10/09 10:32:23;;;;;;;5.38;0.70;;;17.90;99.90;;;;;;5057747;28;20400;-65
2022/10/09 10:34:56;;;;;;;6.85;0.90;;;17.90;99.90;;;;;;5058627;28;20044;-64
2022/10/09 10:37:37;;;;;;;5.40;0.77;;;18.20;99.90;;;;;;5037442;28;20081;-65
2022/10/09 10:40:36;;;;;;;7.90;0.88;;;18.20;99.90;;;;;;5054469;28;20120;-65
2022/10/09 10:43:08;;;;;;;9.15;1.00;;;18.40;99.90;;;;;;5043467;28;20090;-66
2022/10/09 10:45:43;;;;;;;7.07;1.20;;;17.70;99.90;;;;;;5062168;28;20052;-63
2022/10/09 10:48:12;;;;;;;6.18;0.70;;;18.10;99.90;;;;;;5060048;28;20485;-65
2022/10/09 10:50:49;;;;;;;5.38;0.68;;;18.10;99.90;;;;;;5059014;28;20043;-64
2022/10/09 10:53:26;;;;;;;6.55;0.85;;;18.40;99.90;;;;;;5045092;28;20392;-65
2022/10/09 10:55:58;;;;;;;8.23;0.73;;;18.60;99.90;;;;;;5061517;28;20529;-65
2022/10/09 10:58:31;;;;;;;8.30;0.75;;;18.50;99.90;;;;;;5034563;28;20039;-65
2022/10/09 11:01:25;;;;;;;7.07;1.05;;;18.40;99.90;;;;;;5060285;28;20074;-65
2022/10/09 11:04:14;;;;;;;;;;;18.70;99.90;;;;;;5059872;28;20067;-64
2022/10/09 11:06:54;;;;;;;7.03;0.77;;;18.60;99.90;;;;;;5061460;28;19991;-66
2022/10/09 11:09:41;;;;;;;6.28;0.90;;;19.20;99.90;;;;;;5061461;28;20205;-65
2022/10/09 11:12:28;;;;;;;7.10;0.75;;;19.60;99.90;;;;;;5078964;28;20048;-65
2022/10/09 11:15:26;;;;;;;6.15;0.98;;;19.90;99.90;;;;;;5031581;28;20040;-65
2022/10/09 11:18:45;;;;;;;6.70;0.70;;;20.10;99.90;;;;;;4997082;28;20133;-64
2022/10/09 11:21:25;;;;;;;3.28;0.50;;;19.60;99.90;;;;;;4980428;28;20033;-65
2022/10/09 11:24:15;;;;;;;7.40;0.50;;;19.50;99.90;;;;;;4969179;28;20503;-65
2022/10/09 11:26:56;;;;;;;7.57;0.65;;;19.40;99.90;;;;;;5040910;28;20131;-65
2022/10/09 11:29:44;;;;;;;6.35;0.50;;;19.90;99.90;;;;;;5062966;28;20065;-65
2022/10/09 11:32:18;;;;;;;6.75;1.08;;;20.00;99.90;;;;;;5078975;28;20035;-64
2022/10/09 11:34:50;;;;;;;6.40;1.15;;;20.00;99.90;;;;;;5065881;28;20036;-65
2022/10/09 11:37:24;;;;;;;7.50;0.70;;;20.10;99.90;;;;;;5048308;28;20051;-65
2022/10/09 11:39:50;;;;;;;4.25;0.60;;;20.50;99.90;;;;;;5061251;28;20646;-64
2022/10/09 11:42:20;;;;;;;7.68;1.15;;;19.70;99.10;;;;;;5052963;28;20402;-65
2022/10/09 11:44:55;;;;;;;7.47;0.95;;;19.10;99.90;;;;;;5079136;28;20051;-64
2022/10/09 11:47:32;;;;;;;5.75;0.73;;;18.70;99.90;;;;;;5060235;28;20044;-65
2022/10/09 11:50:22;;;;;;;8.15;1.00;;;18.00;99.90;;;;;;5060997;28;20053;-64
2022/10/09 11:52:55;;;;;;;7.10;0.80;;;18.20;99.90;;;;;;5061350;28;20039;-65
2022/10/09 11:55:27;;;;;;;6.80;1.00;;;18.60;99.90;;;;;;5061512;28;20109;-65
2022/10/09 11:57:54;;;;;;;5.63;0.60;;;18.40;99.90;;;;;;5065676;28;20036;-65
2022/10/09 12:00:32;;;;;;;6.28;0.60;;;18.30;99.90;;;;;;5065042;28;20728;-64
2022/10/09 12:03:00;;;;;;;5.03;0.63;;;18.70;99.90;;;;;;5065241;28;20048;-64
2022/10/09 12:05:40;;;;;;;4.72;0.50;;;19.30;99.90;;;;;;5065219;28;20047;-64
2022/10/09 12:08:15;;;;;;;6.57;1.10;;;19.70;99.40;;;;;;5048508;28;20118;-66
2022/10/09 12:10:56;;;;;;;5.57;0.93;;;19.90;98.00;;;;;;5048062;28;20089;-65
2022/10/09 12:13:37;;;;;;;6.30;0.90;;;19.90;95.60;;;;;;5064895;28;20493;-65
2022/10/09 12:16:07;;;;;;;4.45;0.50;;;19.90;95.80;;;;;;5032698;28;20043;-65
2022/10/09 12:18:44;;;;;;;5.53;0.70;;;20.00;94.80;;;;;;5048316;28;20181;-64
2022/10/09 12:21:35;;;;;;;5.05;0.60;;;19.90;95.10;;;;;;5047572;28;20105;-63
2022/10/09 12:24:01;;;;;;;5.35;0.70;;;20.00;96.00;;;;;;5036192;28;20052;-65
2022/10/09 12:26:28;;;;;;;4.82;0.65;;;20.10;93.50;;;;;;5048064;28;20101;-64
2022/10/09 12:29:00;;;;;;;4.20;0.50;;;19.90;95.40;;;;;;5064798;28;20109;-64
2022/10/09 12:31:39;;;;;;;6.32;0.60;;;19.90;95.40;;;;;;5064804;28;20536;-65
2022/10/09 12:34:33;;;;;;;7.75;0.70;;;20.20;96.10;;;;;;5098441;28;20043;-65
2022/10/09 12:37:09;;;;;;;6.15;0.60;;;20.10;94.50;;;;;;5064525;28;20036;-65
2022/10/09 12:39:36;;;;;;;4.90;0.50;;;20.40;94.60;;;;;;5031269;28;20544;-64
2022/10/09 12:42:03;;;;;;;3.85;0.50;;;20.20;91.20;;;;;;5080319;28;20056;-65
2022/10/09 12:44:38;;;;;;;5.70;0.65;;;20.20;92.40;;;;;;5064089;28;20051;-64
2022/10/09 12:47:13;;;;;;;5.80;0.60;;;20.10;92.80;;;;;;5063301;28;20048;-65
2022/10/09 12:49:39;;;;;;;5.78;0.60;;;20.50;91.50;;;;;;5064223;28;20048;-65
2022/10/09 12:52:14;;;;;;;5.50;0.68;;;20.70;87.90;;;;;;5064336;28;20055;-64
2022/10/09 12:54:43;;;;;;;4.60;0.73;;;20.70;84.40;;;;;;5063916;28;20508;-64
2022/10/09 12:57:13;;;;;;;2.78;0.40;;;20.80;83.00;;;;;;5047385;28;20079;-64
2022/10/09 12:59:39;;;;;;;4.30;0.52;;;20.60;88.20;;;;;;5053882;28;20079;-63
2022/10/09 13:02:10;;;;;;;4.63;0.50;;;21.00;79.20;;;;;;5054580;28;20102;-64
2022/10/09 13:04:36;;;;;;;4.75;0.40;;;20.80;82.40;;;;;;5071248;28;20709;-64